Kafr el-Dauwar, Egypt
Current Conditions -  °F | °C
As of 7:00 PM on Sunday 25 Jan 2015 (Local Time) from HEAX Reporting Station
Clear Clear  
Wind Chill: 16°   Ceiling: Unl
Heat Index: 16°   Visibility: 6mi
Dew Point: 12°   Wind: 5mph
Humidity: 77%   Direction: 340°NNW
Pressure: 30.03"   Gusts: NA
Location:  31.13°N, 30.12°E
Report Text: HEAX 251700Z 34004KT CAVOK 16/12 Q1017 NOSIG
Loading
Personal Weather Stations






























Interactive Weather Map New forecast layout! Learn more

10-Day Weather Forecast

Advertisements
Track Severe Weather on mobile